ΕΜΥ, Εθνική Μετεωρολογική Υπηρεσία - Δελτία Καιρού, Προγνώσεις

ΑΕΡΟΝΑΥΤΙΛΙΑ

GREEK AIRPORTS CODES

LGAV 221420Z 07006KT 9999 FEW030 SCT070 23/06 Q1014 RMK BKN150 NOSIG=

EUROPEAN AIRPORTS CODES

TAF LGAV 221100Z 2212/2312 VRB05KT 9999 FEW030 BKN070=